sensor_id;sensor_type;location;lat;lon;timestamp;P1;durP1;ratioP1;P2;durP2;ratioP2
2031;SDS011;27625;50.422;7.944;2023-02-01T00:02:39;18.30;;;11.70;;
2031;SDS011;27625;50.422;7.944;2023-02-01T00:05:06;15.83;;;11.33;;
2031;SDS011;27625;50.422;7.944;2023-02-01T00:10:05;20.27;;;12.57;;
2031;SDS011;27625;50.422;7.944;2023-02-01T00:12:38;20.57;;;11.90;;
2031;SDS011;27625;50.422;7.944;2023-02-01T00:15:11;19.83;;;12.73;;
2031;SDS011;27625;50.422;7.944;2023-02-01T00:17:39;18.13;;;12.80;;
2031;SDS011;27625;50.422;7.944;2023-02-01T00:20:15;15.77;;;10.73;;
2031;SDS011;27625;50.422;7.944;2023-02-01T00:22:42;18.90;;;14.30;;
2031;SDS011;27625;50.422;7.944;2023-02-01T00:25:09;19.93;;;13.90;;
2031;SDS011;27625;50.422;7.944;2023-02-01T00:27:37;20.17;;;13.17;;
2031;SDS011;27625;50.422;7.944;2023-02-01T00:30:04;16.10;;;12.27;;
2031;SDS011;27625;50.422;7.944;2023-02-01T00:32:31;16.47;;;13.13;;
2031;SDS011;27625;50.422;7.944;2023-02-01T00:35:08;21.00;;;14.00;;
2031;SDS011;27625;50.422;7.944;2023-02-01T00:37:37;18.77;;;12.43;;
2031;SDS011;27625;50.422;7.944;2023-02-01T00:40:06;17.00;;;12.23;;
2031;SDS011;27625;50.422;7.944;2023-02-01T00:42:38;15.63;;;11.70;;
2031;SDS011;27625;50.422;7.944;2023-02-01T00:45:07;17.00;;;12.17;;
2031;SDS011;27625;50.422;7.944;2023-02-01T00:47:35;15.87;;;11.90;;
2031;SDS011;27625;50.422;7.944;2023-02-01T00:50:02;17.60;;;11.70;;
2031;SDS011;27625;50.422;7.944;2023-02-01T00:52:30;15.40;;;11.67;;
2031;SDS011;27625;50.422;7.944;2023-02-01T00:55:03;14.60;;;10.90;;
2031;SDS011;27625;50.422;7.944;2023-02-01T01:00:01;15.07;;;10.57;;
2031;SDS011;27625;50.422;7.944;2023-02-01T01:02:28;15.37;;;10.97;;
2031;SDS011;27625;50.422;7.944;2023-02-01T01:04:58;13.83;;;10.10;;
2031;SDS011;27625;50.422;7.944;2023-02-01T01:07:29;15.10;;;10.60;;
2031;SDS011;27625;50.422;7.944;2023-02-01T01:09:56;14.73;;;10.70;;
2031;SDS011;27625;50.422;7.944;2023-02-01T01:12:22;14.57;;;10.80;;
2031;SDS011;27625;50.422;7.944;2023-02-01T01:14:51;17.13;;;11.00;;
2031;SDS011;27625;50.422;7.944;2023-02-01T01:17:18;15.73;;;10.67;;
2031;SDS011;27625;50.422;7.944;2023-02-01T01:19:48;14.03;;;10.90;;
2031;SDS011;27625;50.422;7.944;2023-02-01T01:22:14;14.40;;;11.30;;
2031;SDS011;27625;50.422;7.944;2023-02-01T01:24:44;14.70;;;10.93;;
2031;SDS011;27625;50.422;7.944;2023-02-01T01:27:10;15.83;;;12.30;;
2031;SDS011;27625;50.422;7.944;2023-02-01T01:29:38;18.23;;;12.17;;
2031;SDS011;27625;50.422;7.944;2023-02-01T01:32:05;16.60;;;11.37;;
2031;SDS011;27625;50.422;7.944;2023-02-01T01:34:31;18.20;;;12.20;;
2031;SDS011;27625;50.422;7.944;2023-02-01T01:36:58;17.83;;;12.67;;
2031;SDS011;27625;50.422;7.944;2023-02-01T01:39:30;17.43;;;11.57;;
2031;SDS011;27625;50.422;7.944;2023-02-01T01:42:00;16.73;;;12.33;;
2031;SDS011;27625;50.422;7.944;2023-02-01T01:47:26;17.07;;;11.80;;
2031;SDS011;27625;50.422;7.944;2023-02-01T01:49:59;16.27;;;11.63;;
2031;SDS011;27625;50.422;7.944;2023-02-01T01:52:27;17.23;;;11.90;;
2031;SDS011;27625;50.422;7.944;2023-02-01T01:54:54;19.23;;;11.07;;
2031;SDS011;27625;50.422;7.944;2023-02-01T01:57:23;14.77;;;11.20;;
2031;SDS011;27625;50.422;7.944;2023-02-01T01:59:58;16.30;;;11.03;;
2031;SDS011;27625;50.422;7.944;2023-02-01T02:02:41;19.90;;;10.87;;
2031;SDS011;27625;50.422;7.944;2023-02-01T02:05:12;14.90;;;10.67;;
2031;SDS011;27625;50.422;7.944;2023-02-01T02:07:41;16.63;;;11.30;;
2031;SDS011;27625;50.422;7.944;2023-02-01T02:10:10;16.07;;;11.47;;
2031;SDS011;27625;50.422;7.944;2023-02-01T02:12:39;15.13;;;11.17;;
2031;SDS011;27625;50.422;7.944;2023-02-01T02:15:06;16.43;;;11.90;;
2031;SDS011;27625;50.422;7.944;2023-02-01T02:17:36;21.20;;;10.60;;
2031;SDS011;27625;50.422;7.944;2023-02-01T02:20:24;14.87;;;9.70;;
2031;SDS011;27625;50.422;7.944;2023-02-01T02:25:57;12.17;;;8.73;;
2031;SDS011;27625;50.422;7.944;2023-02-01T02:28:43;14.97;;;8.87;;
2031;SDS011;27625;50.422;7.944;2023-02-01T02:31:34;16.47;;;8.30;;
2031;SDS011;27625;50.422;7.944;2023-02-01T02:34:12;11.83;;;7.80;;
2031;SDS011;27625;50.422;7.944;2023-02-01T02:36:43;11.57;;;7.70;;
2031;SDS011;27625;50.422;7.944;2023-02-01T02:39:20;11.40;;;7.93;;
2031;SDS011;27625;50.422;7.944;2023-02-01T02:41:54;13.93;;;7.93;;
2031;SDS011;27625;50.422;7.944;2023-02-01T02:44:45;13.73;;;8.37;;
2031;SDS011;27625;50.422;7.944;2023-02-01T02:47:41;11.80;;;6.73;;
2031;SDS011;27625;50.422;7.944;2023-02-01T02:50:17;10.10;;;7.00;;
2031;SDS011;27625;50.422;7.944;2023-02-01T02:53:08;16.07;;;7.10;;
2031;SDS011;27625;50.422;7.944;2023-02-01T02:55:54;18.13;;;7.03;;
2031;SDS011;27625;50.422;7.944;2023-02-01T02:58:41;13.03;;;6.83;;
2031;SDS011;27625;50.422;7.944;2023-02-01T03:01:32;10.13;;;6.57;;
2031;SDS011;27625;50.422;7.944;2023-02-01T03:04:24;15.07;;;7.37;;
2031;SDS011;27625;50.422;7.944;2023-02-01T03:06:53;9.03;;;6.17;;
2031;SDS011;27625;50.422;7.944;2023-02-01T03:09:24;12.77;;;6.60;;
2031;SDS011;27625;50.422;7.944;2023-02-01T03:11:55;12.00;;;6.40;;
2031;SDS011;27625;50.422;7.944;2023-02-01T03:14:43;8.13;;;6.07;;
2031;SDS011;27625;50.422;7.944;2023-02-01T03:17:25;15.27;;;7.23;;
2031;SDS011;27625;50.422;7.944;2023-02-01T03:19:55;15.57;;;7.20;;
2031;SDS011;27625;50.422;7.944;2023-02-01T03:22:27;15.20;;;6.17;;
2031;SDS011;27625;50.422;7.944;2023-02-01T03:27:31;12.83;;;6.70;;
2031;SDS011;27625;50.422;7.944;2023-02-01T03:30:02;17.17;;;8.33;;
2031;SDS011;27625;50.422;7.944;2023-02-01T03:32:32;11.30;;;6.60;;
2031;SDS011;27625;50.422;7.944;2023-02-01T03:35:23;11.57;;;7.67;;
2031;SDS011;27625;50.422;7.944;2023-02-01T03:37:54;16.90;;;7.37;;
2031;SDS011;27625;50.422;7.944;2023-02-01T03:40:26;15.33;;;7.80;;
2031;SDS011;27625;50.422;7.944;2023-02-01T03:42:56;11.23;;;7.37;;
2031;SDS011;27625;50.422;7.944;2023-02-01T03:45:26;15.03;;;7.90;;
2031;SDS011;27625;50.422;7.944;2023-02-01T03:47:55;13.07;;;8.60;;
2031;SDS011;27625;50.422;7.944;2023-02-01T03:50:32;15.10;;;7.23;;
2031;SDS011;27625;50.422;7.944;2023-02-01T03:53:03;11.80;;;7.70;;
2031;SDS011;27625;50.422;7.944;2023-02-01T03:55:35;10.83;;;7.67;;
2031;SDS011;27625;50.422;7.944;2023-02-01T03:58:05;19.57;;;8.40;;
2031;SDS011;27625;50.422;7.944;2023-02-01T04:00:33;12.70;;;7.50;;
2031;SDS011;27625;50.422;7.944;2023-02-01T04:03:01;15.80;;;7.80;;
2031;SDS011;27625;50.422;7.944;2023-02-01T04:05:29;13.23;;;7.00;;
2031;SDS011;27625;50.422;7.944;2023-02-01T04:08:08;14.57;;;6.57;;
2031;SDS011;27625;50.422;7.944;2023-02-01T04:10:40;15.23;;;6.47;;
2031;SDS011;27625;50.422;7.944;2023-02-01T04:13:07;15.60;;;7.00;;
2031;SDS011;27625;50.422;7.944;2023-02-01T04:15:39;16.97;;;6.97;;
2031;SDS011;27625;50.422;7.944;2023-02-01T04:18:06;11.80;;;6.73;;
2031;SDS011;27625;50.422;7.944;2023-02-01T04:20:33;13.97;;;6.37;;
2031;SDS011;27625;50.422;7.944;2023-02-01T04:23:01;15.33;;;6.43;;
2031;SDS011;27625;50.422;7.944;2023-02-01T04:25:30;12.17;;;6.53;;
2031;SDS011;27625;50.422;7.944;2023-02-01T04:27:58;16.43;;;7.57;;
2031;SDS011;27625;50.422;7.944;2023-02-01T04:30:25;18.07;;;7.40;;
2031;SDS011;27625;50.422;7.944;2023-02-01T04:32:53;15.77;;;6.57;;
2031;SDS011;27625;50.422;7.944;2023-02-01T04:35:24;14.80;;;7.37;;
2031;SDS011;27625;50.422;7.944;2023-02-01T04:37:53;18.10;;;7.10;;
2031;SDS011;27625;50.422;7.944;2023-02-01T04:40:21;14.80;;;6.60;;
2031;SDS011;27625;50.422;7.944;2023-02-01T04:42:51;18.57;;;6.80;;
2031;SDS011;27625;50.422;7.944;2023-02-01T04:45:17;16.53;;;6.30;;
2031;SDS011;27625;50.422;7.944;2023-02-01T04:47:50;14.27;;;6.80;;
2031;SDS011;27625;50.422;7.944;2023-02-01T04:50:18;15.10;;;6.70;;
2031;SDS011;27625;50.422;7.944;2023-02-01T04:52:51;16.40;;;6.67;;
2031;SDS011;27625;50.422;7.944;2023-02-01T04:55:18;10.73;;;4.93;;
2031;SDS011;27625;50.422;7.944;2023-02-01T04:57:46;21.67;;;5.87;;
2031;SDS011;27625;50.422;7.944;2023-02-01T05:00:15;12.27;;;5.47;;
2031;SDS011;27625;50.422;7.944;2023-02-01T05:02:42;18.43;;;5.33;;
2031;SDS011;27625;50.422;7.944;2023-02-01T05:05:17;12.87;;;5.63;;
2031;SDS011;27625;50.422;7.944;2023-02-01T05:07:45;10.17;;;6.10;;
2031;SDS011;27625;50.422;7.944;2023-02-01T05:10:13;12.73;;;6.17;;
2031;SDS011;27625;50.422;7.944;2023-02-01T05:12:40;13.17;;;5.47;;
2031;SDS011;27625;50.422;7.944;2023-02-01T05:15:40;18.07;;;6.10;;
2031;SDS011;27625;50.422;7.944;2023-02-01T05:18:09;14.83;;;5.33;;
2031;SDS011;27625;50.422;7.944;2023-02-01T05:20:35;9.47;;;5.00;;
2031;SDS011;27625;50.422;7.944;2023-02-01T05:23:03;17.03;;;7.10;;
2031;SDS011;27625;50.422;7.944;2023-02-01T05:25:31;20.53;;;8.30;;
2031;SDS011;27625;50.422;7.944;2023-02-01T05:28:02;20.23;;;6.53;;
2031;SDS011;27625;50.422;7.944;2023-02-01T05:30:28;15.40;;;6.80;;
2031;SDS011;27625;50.422;7.944;2023-02-01T05:33:03;10.53;;;5.50;;
2031;SDS011;27625;50.422;7.944;2023-02-01T05:35:30;14.20;;;6.37;;
2031;SDS011;27625;50.422;7.944;2023-02-01T05:38:02;17.33;;;6.00;;
2031;SDS011;27625;50.422;7.944;2023-02-01T05:40:33;25.20;;;8.53;;
2031;SDS011;27625;50.422;7.944;2023-02-01T05:42:59;17.90;;;7.47;;
2031;SDS011;27625;50.422;7.944;2023-02-01T05:45:28;15.20;;;6.60;;
2031;SDS011;27625;50.422;7.944;2023-02-01T05:47:56;20.73;;;6.97;;
2031;SDS011;27625;50.422;7.944;2023-02-01T05:50:24;13.30;;;6.30;;
2031;SDS011;27625;50.422;7.944;2023-02-01T05:52:59;19.60;;;7.50;;
2031;SDS011;27625;50.422;7.944;2023-02-01T05:55:25;13.60;;;7.07;;
2031;SDS011;27625;50.422;7.944;2023-02-01T05:57:53;14.77;;;6.43;;
2031;SDS011;27625;50.422;7.944;2023-02-01T06:00:20;18.03;;;7.07;;
2031;SDS011;27625;50.422;7.944;2023-02-01T06:02:49;15.40;;;6.40;;
2031;SDS011;27625;50.422;7.944;2023-02-01T06:05:17;15.17;;;7.90;;
2031;SDS011;27625;50.422;7.944;2023-02-01T06:07:47;15.77;;;6.67;;
2031;SDS011;27625;50.422;7.944;2023-02-01T06:10:15;16.47;;;6.13;;
2031;SDS011;27625;50.422;7.944;2023-02-01T06:12:51;17.53;;;6.33;;
2031;SDS011;27625;50.422;7.944;2023-02-01T06:15:18;14.63;;;6.27;;
2031;SDS011;27625;50.422;7.944;2023-02-01T06:17:45;13.23;;;6.30;;
2031;SDS011;27625;50.422;7.944;2023-02-01T06:20:15;12.33;;;6.27;;
2031;SDS011;27625;50.422;7.944;2023-02-01T06:22:45;13.60;;;6.20;;
2031;SDS011;27625;50.422;7.944;2023-02-01T06:25:13;14.33;;;6.60;;
2031;SDS011;27625;50.422;7.944;2023-02-01T06:27:46;10.60;;;5.80;;
2031;SDS011;27625;50.422;7.944;2023-02-01T06:30:14;16.40;;;5.40;;
2031;SDS011;27625;50.422;7.944;2023-02-01T06:32:42;12.97;;;5.20;;
2031;SDS011;27625;50.422;7.944;2023-02-01T06:35:09;12.17;;;5.13;;
2031;SDS011;27625;50.422;7.944;2023-02-01T06:37:48;12.00;;;5.53;;
2031;SDS011;27625;50.422;7.944;2023-02-01T06:40:17;15.37;;;6.00;;
2031;SDS011;27625;50.422;7.944;2023-02-01T06:42:44;15.10;;;5.40;;
2031;SDS011;27625;50.422;7.944;2023-02-01T06:45:10;14.07;;;5.50;;
2031;SDS011;27625;50.422;7.944;2023-02-01T06:47:37;17.77;;;5.70;;
2031;SDS011;27625;50.422;7.944;2023-02-01T06:50:04;10.80;;;5.87;;
2031;SDS011;27625;50.422;7.944;2023-02-01T06:52:31;17.83;;;5.67;;
2031;SDS011;27625;50.422;7.944;2023-02-01T06:54:58;13.43;;;5.20;;
2031;SDS011;27625;50.422;7.944;2023-02-01T06:57:29;13.30;;;5.10;;
2031;SDS011;27625;50.422;7.944;2023-02-01T06:59:58;10.23;;;5.43;;
2031;SDS011;27625;50.422;7.944;2023-02-01T07:02:25;14.00;;;5.50;;
2031;SDS011;27625;50.422;7.944;2023-02-01T07:04:54;11.13;;;6.07;;
2031;SDS011;27625;50.422;7.944;2023-02-01T07:07:23;14.93;;;6.07;;
2031;SDS011;27625;50.422;7.944;2023-02-01T07:09:50;11.90;;;5.40;;
2031;SDS011;27625;50.422;7.944;2023-02-01T07:12:16;14.07;;;5.90;;
2031;SDS011;27625;50.422;7.944;2023-02-01T07:14:47;19.90;;;5.30;;
2031;SDS011;27625;50.422;7.944;2023-02-01T07:17:21;19.30;;;5.23;;
2031;SDS011;27625;50.422;7.944;2023-02-01T07:19:50;16.47;;;6.00;;
2031;SDS011;27625;50.422;7.944;2023-02-01T07:22:27;16.10;;;5.77;;
2031;SDS011;27625;50.422;7.944;2023-02-01T07:24:54;16.80;;;6.40;;
2031;SDS011;27625;50.422;7.944;2023-02-01T07:27:20;11.60;;;6.00;;
2031;SDS011;27625;50.422;7.944;2023-02-01T07:32:36;19.70;;;5.70;;
2031;SDS011;27625;50.422;7.944;2023-02-01T07:35:03;9.93;;;4.60;;
2031;SDS011;27625;50.422;7.944;2023-02-01T07:37:40;11.60;;;5.43;;
2031;SDS011;27625;50.422;7.944;2023-02-01T07:40:09;11.80;;;5.80;;
2031;SDS011;27625;50.422;7.944;2023-02-01T07:42:36;10.50;;;5.30;;
2031;SDS011;27625;50.422;7.944;2023-02-01T07:45:06;9.63;;;4.80;;
2031;SDS011;27625;50.422;7.944;2023-02-01T07:47:33;12.73;;;5.67;;
2031;SDS011;27625;50.422;7.944;2023-02-01T07:50:00;13.97;;;6.67;;
2031;SDS011;27625;50.422;7.944;2023-02-01T07:52:30;13.60;;;5.27;;
2031;SDS011;27625;50.422;7.944;2023-02-01T07:54:59;20.13;;;5.70;;
2031;SDS011;27625;50.422;7.944;2023-02-01T07:57:25;13.03;;;5.97;;
2031;SDS011;27625;50.422;7.944;2023-02-01T07:59:55;15.33;;;5.00;;
2031;SDS011;27625;50.422;7.944;2023-02-01T08:02:43;14.97;;;5.60;;
2031;SDS011;27625;50.422;7.944;2023-02-01T08:05:10;16.50;;;6.93;;
2031;SDS011;27625;50.422;7.944;2023-02-01T08:07:39;12.97;;;5.30;;
2031;SDS011;27625;50.422;7.944;2023-02-01T08:10:12;15.40;;;5.70;;
2031;SDS011;27625;50.422;7.944;2023-02-01T08:12:57;10.10;;;3.90;;
2031;SDS011;27625;50.422;7.944;2023-02-01T08:15:25;16.83;;;6.43;;
2031;SDS011;27625;50.422;7.944;2023-02-01T08:17:56;14.87;;;6.70;;
2031;SDS011;27625;50.422;7.944;2023-02-01T08:20:26;18.70;;;5.93;;
2031;SDS011;27625;50.422;7.944;2023-02-01T08:22:53;14.17;;;6.30;;
2031;SDS011;27625;50.422;7.944;2023-02-01T08:25:27;13.10;;;5.73;;
2031;SDS011;27625;50.422;7.944;2023-02-01T08:27:58;10.57;;;5.37;;
2031;SDS011;27625;50.422;7.944;2023-02-01T08:30:24;16.37;;;5.23;;
2031;SDS011;27625;50.422;7.944;2023-02-01T08:33:01;13.50;;;5.80;;
2031;SDS011;27625;50.422;7.944;2023-02-01T08:35:28;21.03;;;5.93;;
2031;SDS011;27625;50.422;7.944;2023-02-01T08:37:55;19.30;;;5.90;;
2031;SDS011;27625;50.422;7.944;2023-02-01T08:40:24;11.03;;;5.60;;
2031;SDS011;27625;50.422;7.944;2023-02-01T08:42:57;14.13;;;5.00;;
2031;SDS011;27625;50.422;7.944;2023-02-01T08:45:26;10.03;;;5.10;;
2031;SDS011;27625;50.422;7.944;2023-02-01T08:47:54;11.53;;;4.87;;
2031;SDS011;27625;50.422;7.944;2023-02-01T08:50:23;17.00;;;5.00;;
2031;SDS011;27625;50.422;7.944;2023-02-01T08:52:53;13.53;;;5.03;;
2031;SDS011;27625;50.422;7.944;2023-02-01T08:55:20;12.13;;;5.70;;
2031;SDS011;27625;50.422;7.944;2023-02-01T08:57:48;15.53;;;6.00;;
2031;SDS011;27625;50.422;7.944;2023-02-01T09:00:15;13.27;;;6.93;;
2031;SDS011;27625;50.422;7.944;2023-02-01T09:02:51;10.07;;;5.70;;
2031;SDS011;27625;50.422;7.944;2023-02-01T09:05:18;13.03;;;5.47;;
2031;SDS011;27625;50.422;7.944;2023-02-01T09:07:49;11.20;;;5.20;;
2031;SDS011;27625;50.422;7.944;2023-02-01T09:10:22;17.73;;;5.40;;
2031;SDS011;27625;50.422;7.944;2023-02-01T09:12:50;15.63;;;5.63;;
2031;SDS011;27625;50.422;7.944;2023-02-01T09:15:17;12.77;;;5.60;;
2031;SDS011;27625;50.422;7.944;2023-02-01T09:17:44;13.97;;;5.70;;
2031;SDS011;27625;50.422;7.944;2023-02-01T09:20:11;16.70;;;6.00;;
2031;SDS011;27625;50.422;7.944;2023-02-01T09:22:38;18.27;;;5.57;;
2031;SDS011;27625;50.422;7.944;2023-02-01T09:25:08;12.47;;;6.20;;
2031;SDS011;27625;50.422;7.944;2023-02-01T09:27:35;16.33;;;6.70;;
2031;SDS011;27625;50.422;7.944;2023-02-01T09:30:01;16.80;;;7.37;;
2031;SDS011;27625;50.422;7.944;2023-02-01T09:32:28;14.17;;;6.37;;
2031;SDS011;27625;50.422;7.944;2023-02-01T09:34:56;11.53;;;5.80;;
2031;SDS011;27625;50.422;7.944;2023-02-01T09:37:23;16.90;;;5.77;;
2031;SDS011;27625;50.422;7.944;2023-02-01T09:39:49;14.20;;;5.70;;
2031;SDS011;27625;50.422;7.944;2023-02-01T09:42:24;12.40;;;5.90;;
2031;SDS011;27625;50.422;7.944;2023-02-01T09:45:08;11.10;;;6.70;;
2031;SDS011;27625;50.422;7.944;2023-02-01T09:47:47;13.13;;;5.90;;
2031;SDS011;27625;50.422;7.944;2023-02-01T09:50:17;14.70;;;6.23;;
2031;SDS011;27625;50.422;7.944;2023-02-01T09:52:48;15.13;;;6.20;;
2031;SDS011;27625;50.422;7.944;2023-02-01T09:55:20;12.63;;;6.00;;
2031;SDS011;27625;50.422;7.944;2023-02-01T09:57:53;18.90;;;7.63;;
2031;SDS011;27625;50.422;7.944;2023-02-01T10:00:24;13.23;;;5.57;;
2031;SDS011;27625;50.422;7.944;2023-02-01T10:02:54;14.03;;;5.53;;
2031;SDS011;27625;50.422;7.944;2023-02-01T10:05:26;11.83;;;5.00;;
2031;SDS011;27625;50.422;7.944;2023-02-01T10:08:08;16.50;;;6.93;;
2031;SDS011;27625;50.422;7.944;2023-02-01T10:10:40;11.13;;;5.83;;
2031;SDS011;27625;50.422;7.944;2023-02-01T10:13:22;14.07;;;7.80;;
2031;SDS011;27625;50.422;7.944;2023-02-01T10:16:00;14.47;;;6.60;;
2031;SDS011;27625;50.422;7.944;2023-02-01T10:18:45;10.80;;;6.17;;
2031;SDS011;27625;50.422;7.944;2023-02-01T10:21:22;13.30;;;7.23;;
2031;SDS011;27625;50.422;7.944;2023-02-01T10:24:12;14.30;;;6.10;;
2031;SDS011;27625;50.422;7.944;2023-02-01T10:26:47;10.00;;;4.57;;
2031;SDS011;27625;50.422;7.944;2023-02-01T10:29:20;10.57;;;5.67;;
2031;SDS011;27625;50.422;7.944;2023-02-01T10:31:50;11.80;;;5.67;;
2031;SDS011;27625;50.422;7.944;2023-02-01T10:34:19;13.63;;;5.43;;
2031;SDS011;27625;50.422;7.944;2023-02-01T10:36:53;12.67;;;5.90;;
2031;SDS011;27625;50.422;7.944;2023-02-01T10:39:20;13.60;;;6.00;;
2031;SDS011;27625;50.422;7.944;2023-02-01T10:41:49;15.93;;;7.23;;
2031;SDS011;27625;50.422;7.944;2023-02-01T10:44:16;15.70;;;6.57;;
2031;SDS011;27625;50.422;7.944;2023-02-01T10:46:50;11.27;;;6.37;;
2031;SDS011;27625;50.422;7.944;2023-02-01T10:49:18;7.93;;;4.90;;
2031;SDS011;27625;50.422;7.944;2023-02-01T10:51:47;12.50;;;5.63;;
2031;SDS011;27625;50.422;7.944;2023-02-01T10:54:18;13.20;;;6.00;;
2031;SDS011;27625;50.422;7.944;2023-02-01T10:56:47;16.40;;;7.17;;
2031;SDS011;27625;50.422;7.944;2023-02-01T10:59:16;12.50;;;6.03;;
2031;SDS011;27625;50.422;7.944;2023-02-01T11:01:44;16.70;;;6.00;;
2031;SDS011;27625;50.422;7.944;2023-02-01T11:04:14;12.30;;;4.90;;
2031;SDS011;27625;50.422;7.944;2023-02-01T11:06:42;16.03;;;5.27;;
2031;SDS011;27625;50.422;7.944;2023-02-01T11:09:16;17.23;;;6.50;;
2031;SDS011;27625;50.422;7.944;2023-02-01T11:11:59;13.43;;;5.63;;
2031;SDS011;27625;50.422;7.944;2023-02-01T11:14:27;10.10;;;6.13;;
2031;SDS011;27625;50.422;7.944;2023-02-01T11:17:15;11.33;;;5.97;;
2031;SDS011;27625;50.422;7.944;2023-02-01T11:19:47;11.60;;;5.57;;
2031;SDS011;27625;50.422;7.944;2023-02-01T11:22:17;8.43;;;4.87;;
2031;SDS011;27625;50.422;7.944;2023-02-01T11:24:44;10.83;;;4.20;;
2031;SDS011;27625;50.422;7.944;2023-02-01T11:27:16;12.30;;;5.40;;
2031;SDS011;27625;50.422;7.944;2023-02-01T11:29:45;12.53;;;5.63;;
2031;SDS011;27625;50.422;7.944;2023-02-01T11:32:20;12.50;;;5.30;;
2031;SDS011;27625;50.422;7.944;2023-02-01T11:34:53;10.30;;;4.63;;
2031;SDS011;27625;50.422;7.944;2023-02-01T11:37:23;9.30;;;5.53;;
2031;SDS011;27625;50.422;7.944;2023-02-01T11:39:55;13.17;;;5.40;;
2031;SDS011;27625;50.422;7.944;2023-02-01T11:42:23;13.30;;;5.70;;
2031;SDS011;27625;50.422;7.944;2023-02-01T11:47:43;16.30;;;6.27;;
2031;SDS011;27625;50.422;7.944;2023-02-01T11:50:14;9.00;;;4.70;;
2031;SDS011;27625;50.422;7.944;2023-02-01T11:52:57;12.03;;;5.60;;
2031;SDS011;27625;50.422;7.944;2023-02-01T11:55:59;11.50;;;5.37;;
2031;SDS011;27625;50.422;7.944;2023-02-01T11:58:40;13.33;;;5.33;;
2031;SDS011;27625;50.422;7.944;2023-02-01T12:01:18;9.20;;;5.13;;
2031;SDS011;27625;50.422;7.944;2023-02-01T12:06:55;15.83;;;5.30;;
2031;SDS011;27625;50.422;7.944;2023-02-01T12:09:29;17.67;;;6.27;;
2031;SDS011;27625;50.422;7.944;2023-02-01T12:12:02;12.53;;;5.20;;
2031;SDS011;27625;50.422;7.944;2023-02-01T12:14:51;10.17;;;5.13;;
2031;SDS011;27625;50.422;7.944;2023-02-01T12:17:41;12.33;;;5.07;;
2031;SDS011;27625;50.422;7.944;2023-02-01T12:20:26;10.80;;;4.90;;
2031;SDS011;27625;50.422;7.944;2023-02-01T12:23:14;12.37;;;5.30;;
2031;SDS011;27625;50.422;7.944;2023-02-01T12:25:56;13.43;;;6.10;;
2031;SDS011;27625;50.422;7.944;2023-02-01T12:31:41;10.17;;;5.47;;
2031;SDS011;27625;50.422;7.944;2023-02-01T12:34:26;9.07;;;5.13;;
2031;SDS011;27625;50.422;7.944;2023-02-01T12:39:39;10.77;;;5.13;;
2031;SDS011;27625;50.422;7.944;2023-02-01T12:42:16;9.83;;;4.40;;
2031;SDS011;27625;50.422;7.944;2023-02-01T12:44:50;8.90;;;5.07;;
2031;SDS011;27625;50.422;7.944;2023-02-01T12:47:25;11.63;;;4.50;;
2031;SDS011;27625;50.422;7.944;2023-02-01T12:49:57;16.03;;;5.43;;
2031;SDS011;27625;50.422;7.944;2023-02-01T12:52:30;13.77;;;4.73;;
2031;SDS011;27625;50.422;7.944;2023-02-01T12:55:05;18.80;;;5.10;;
2031;SDS011;27625;50.422;7.944;2023-02-01T12:57:37;11.73;;;4.97;;
2031;SDS011;27625;50.422;7.944;2023-02-01T13:00:12;13.90;;;5.40;;
2031;SDS011;27625;50.422;7.944;2023-02-01T13:02:50;14.30;;;5.20;;
2031;SDS011;27625;50.422;7.944;2023-02-01T13:05:20;8.93;;;4.50;;
2031;SDS011;27625;50.422;7.944;2023-02-01T13:08:00;15.67;;;5.77;;
2031;SDS011;27625;50.422;7.944;2023-02-01T13:10:31;11.90;;;5.40;;
2031;SDS011;27625;50.422;7.944;2023-02-01T13:13:08;11.00;;;4.77;;
2031;SDS011;27625;50.422;7.944;2023-02-01T13:15:39;7.60;;;4.20;;
2031;SDS011;27625;50.422;7.944;2023-02-01T13:18:09;14.23;;;5.90;;
2031;SDS011;27625;50.422;7.944;2023-02-01T13:20:44;13.37;;;5.60;;
2031;SDS011;27625;50.422;7.944;2023-02-01T13:23:16;9.10;;;4.50;;
2031;SDS011;27625;50.422;7.944;2023-02-01T13:25:50;12.50;;;4.60;;
2031;SDS011;27625;50.422;7.944;2023-02-01T13:28:19;15.93;;;5.37;;
2031;SDS011;27625;50.422;7.944;2023-02-01T13:31:06;10.80;;;4.80;;
2031;SDS011;27625;50.422;7.944;2023-02-01T13:33:45;12.70;;;4.60;;
2031;SDS011;27625;50.422;7.944;2023-02-01T13:36:26;10.07;;;4.30;;
2031;SDS011;27625;50.422;7.944;2023-02-01T13:41:56;11.37;;;4.27;;
2031;SDS011;27625;50.422;7.944;2023-02-01T13:44:40;8.13;;;4.60;;
2031;SDS011;27625;50.422;7.944;2023-02-01T13:47:12;12.90;;;4.07;;
2031;SDS011;27625;50.422;7.944;2023-02-01T13:49:47;12.30;;;4.80;;
2031;SDS011;27625;50.422;7.944;2023-02-01T13:52:32;15.07;;;5.30;;
2031;SDS011;27625;50.422;7.944;2023-02-01T13:58:03;8.37;;;4.23;;
2031;SDS011;27625;50.422;7.944;2023-02-01T14:00:33;14.20;;;5.00;;
2031;SDS011;27625;50.422;7.944;2023-02-01T14:03:08;13.10;;;5.33;;
2031;SDS011;27625;50.422;7.944;2023-02-01T14:08:39;17.80;;;5.47;;
2031;SDS011;27625;50.422;7.944;2023-02-01T14:23:30;10.10;;;4.60;;
2031;SDS011;27625;50.422;7.944;2023-02-01T14:26:05;10.70;;;4.10;;
2031;SDS011;27625;50.422;7.944;2023-02-01T14:28:35;13.23;;;4.17;;
2031;SDS011;27625;50.422;7.944;2023-02-01T14:34:14;12.87;;;4.30;;
2031;SDS011;27625;50.422;7.944;2023-02-01T14:36:50;13.53;;;4.33;;
2031;SDS011;27625;50.422;7.944;2023-02-01T14:39:32;9.93;;;4.20;;
2031;SDS011;27625;50.422;7.944;2023-02-01T14:42:04;8.63;;;3.70;;
2031;SDS011;27625;50.422;7.944;2023-02-01T14:44:33;13.90;;;3.93;;
2031;SDS011;27625;50.422;7.944;2023-02-01T14:50:22;13.83;;;4.20;;
2031;SDS011;27625;50.422;7.944;2023-02-01T14:52:59;8.60;;;4.30;;
2031;SDS011;27625;50.422;7.944;2023-02-01T14:55:33;13.20;;;5.40;;
2031;SDS011;27625;50.422;7.944;2023-02-01T14:58:03;10.70;;;3.80;;
2031;SDS011;27625;50.422;7.944;2023-02-01T15:00:31;19.70;;;6.30;;
2031;SDS011;27625;50.422;7.944;2023-02-01T15:03:14;12.87;;;5.53;;
2031;SDS011;27625;50.422;7.944;2023-02-01T15:05:50;11.73;;;5.97;;
2031;SDS011;27625;50.422;7.944;2023-02-01T15:08:24;8.20;;;4.60;;
2031;SDS011;27625;50.422;7.944;2023-02-01T15:13:25;12.97;;;5.67;;
2031;SDS011;27625;50.422;7.944;2023-02-01T15:16:02;11.10;;;5.80;;
2031;SDS011;27625;50.422;7.944;2023-02-01T15:18:30;12.67;;;5.70;;
2031;SDS011;27625;50.422;7.944;2023-02-01T15:21:02;14.80;;;5.47;;
2031;SDS011;27625;50.422;7.944;2023-02-01T15:23:42;14.67;;;6.10;;
2031;SDS011;27625;50.422;7.944;2023-02-01T15:26:23;15.37;;;6.43;;
2031;SDS011;27625;50.422;7.944;2023-02-01T15:28:51;11.97;;;7.13;;
2031;SDS011;27625;50.422;7.944;2023-02-01T15:31:31;17.37;;;6.80;;
2031;SDS011;27625;50.422;7.944;2023-02-01T15:34:00;15.90;;;6.43;;
2031;SDS011;27625;50.422;7.944;2023-02-01T15:36:28;10.90;;;4.80;;
2031;SDS011;27625;50.422;7.944;2023-02-01T15:39:16;15.87;;;6.97;;
2031;SDS011;27625;50.422;7.944;2023-02-01T15:41:46;13.40;;;6.27;;
2031;SDS011;27625;50.422;7.944;2023-02-01T15:44:22;14.70;;;4.80;;
2031;SDS011;27625;50.422;7.944;2023-02-01T15:46:55;13.10;;;5.00;;
2031;SDS011;27625;50.422;7.944;2023-02-01T15:49:25;14.10;;;5.97;;
2031;SDS011;27625;50.422;7.944;2023-02-01T15:51:56;11.60;;;5.30;;
2031;SDS011;27625;50.422;7.944;2023-02-01T15:54:26;17.03;;;6.40;;
2031;SDS011;27625;50.422;7.944;2023-02-01T15:56:57;10.33;;;4.40;;
2031;SDS011;27625;50.422;7.944;2023-02-01T15:59:28;10.23;;;4.13;;
2031;SDS011;27625;50.422;7.944;2023-02-01T16:04:27;10.60;;;4.60;;
2031;SDS011;27625;50.422;7.944;2023-02-01T16:06:58;8.47;;;4.03;;
2031;SDS011;27625;50.422;7.944;2023-02-01T16:09:38;9.10;;;4.73;;
2031;SDS011;27625;50.422;7.944;2023-02-01T16:12:22;11.83;;;4.07;;
2031;SDS011;27625;50.422;7.944;2023-02-01T16:14:53;11.20;;;5.07;;
2031;SDS011;27625;50.422;7.944;2023-02-01T16:17:22;10.60;;;4.30;;